sensor_id;sensor_type;location;lat;lon;timestamp;P1;durP1;ratioP1;P2;durP2;ratioP2
46355;SDS011;32066;49.474;11.106;2024-03-08T00:01:06;23.50;;;15.40;;
46355;SDS011;32066;49.474;11.106;2024-03-08T00:03:34;26.60;;;16.10;;
46355;SDS011;32066;49.474;11.106;2024-03-08T00:06:05;24.67;;;15.55;;
46355;SDS011;32066;49.474;11.106;2024-03-08T00:08:34;25.88;;;15.50;;
46355;SDS011;32066;49.474;11.106;2024-03-08T00:11:03;24.75;;;16.02;;
46355;SDS011;32066;49.474;11.106;2024-03-08T00:13:33;26.43;;;16.80;;
46355;SDS011;32066;49.474;11.106;2024-03-08T00:16:05;24.10;;;16.00;;
46355;SDS011;32066;49.474;11.106;2024-03-08T00:18:34;23.42;;;15.43;;
46355;SDS011;32066;49.474;11.106;2024-03-08T00:21:03;24.05;;;14.95;;
46355;SDS011;32066;49.474;11.106;2024-03-08T00:23:34;24.30;;;15.85;;
46355;SDS011;32066;49.474;11.106;2024-03-08T00:26:03;24.02;;;15.32;;
46355;SDS011;32066;49.474;11.106;2024-03-08T00:28:32;24.27;;;15.02;;
46355;SDS011;32066;49.474;11.106;2024-03-08T00:31:01;24.40;;;16.05;;
46355;SDS011;32066;49.474;11.106;2024-03-08T00:33:32;23.90;;;15.27;;
46355;SDS011;32066;49.474;11.106;2024-03-08T00:36:02;23.17;;;16.02;;
46355;SDS011;32066;49.474;11.106;2024-03-08T00:38:30;23.13;;;15.65;;
46355;SDS011;32066;49.474;11.106;2024-03-08T00:40:59;23.38;;;15.43;;
46355;SDS011;32066;49.474;11.106;2024-03-08T00:43:28;22.63;;;15.60;;
46355;SDS011;32066;49.474;11.106;2024-03-08T00:45:57;25.10;;;16.38;;
46355;SDS011;32066;49.474;11.106;2024-03-08T00:48:29;23.50;;;15.80;;
46355;SDS011;32066;49.474;11.106;2024-03-08T00:50:57;23.30;;;16.25;;
46355;SDS011;32066;49.474;11.106;2024-03-08T00:53:27;23.30;;;15.40;;
46355;SDS011;32066;49.474;11.106;2024-03-08T00:55:55;23.05;;;15.20;;
46355;SDS011;32066;49.474;11.106;2024-03-08T00:58:24;24.52;;;16.30;;
46355;SDS011;32066;49.474;11.106;2024-03-08T01:00:53;22.63;;;15.35;;
46355;SDS011;32066;49.474;11.106;2024-03-08T01:03:22;23.75;;;15.40;;
46355;SDS011;32066;49.474;11.106;2024-03-08T01:05:54;23.25;;;15.18;;
46355;SDS011;32066;49.474;11.106;2024-03-08T01:08:22;22.75;;;16.02;;
46355;SDS011;32066;49.474;11.106;2024-03-08T01:10:51;24.45;;;15.75;;
46355;SDS011;32066;49.474;11.106;2024-03-08T01:13:20;23.95;;;15.60;;
46355;SDS011;32066;49.474;11.106;2024-03-08T01:15:48;24.70;;;16.30;;
46355;SDS011;32066;49.474;11.106;2024-03-08T01:18:17;24.30;;;15.63;;
46355;SDS011;32066;49.474;11.106;2024-03-08T01:20:45;25.85;;;16.13;;
46355;SDS011;32066;49.474;11.106;2024-03-08T01:23:17;25.40;;;16.23;;
46355;SDS011;32066;49.474;11.106;2024-03-08T01:25:45;27.60;;;16.02;;
46355;SDS011;32066;49.474;11.106;2024-03-08T01:28:21;25.63;;;15.85;;
46355;SDS011;32066;49.474;11.106;2024-03-08T01:30:50;23.58;;;15.73;;
46355;SDS011;32066;49.474;11.106;2024-03-08T01:33:21;27.40;;;17.63;;
46355;SDS011;32066;49.474;11.106;2024-03-08T01:35:50;27.60;;;15.88;;
46355;SDS011;32066;49.474;11.106;2024-03-08T01:38:22;25.13;;;17.38;;
46355;SDS011;32066;49.474;11.106;2024-03-08T01:40:50;27.23;;;16.35;;
46355;SDS011;32066;49.474;11.106;2024-03-08T01:43:19;23.08;;;16.02;;
46355;SDS011;32066;49.474;11.106;2024-03-08T01:45:49;26.67;;;16.90;;
46355;SDS011;32066;49.474;11.106;2024-03-08T01:48:17;24.42;;;15.63;;
46355;SDS011;32066;49.474;11.106;2024-03-08T01:50:49;25.75;;;16.10;;
46355;SDS011;32066;49.474;11.106;2024-03-08T01:53:22;23.13;;;15.38;;
46355;SDS011;32066;49.474;11.106;2024-03-08T01:55:53;25.55;;;16.52;;
46355;SDS011;32066;49.474;11.106;2024-03-08T01:58:24;25.38;;;16.38;;
46355;SDS011;32066;49.474;11.106;2024-03-08T02:00:58;26.60;;;15.40;;
46355;SDS011;32066;49.474;11.106;2024-03-08T02:03:28;24.23;;;15.40;;
46355;SDS011;32066;49.474;11.106;2024-03-08T02:05:57;23.80;;;16.15;;
46355;SDS011;32066;49.474;11.106;2024-03-08T02:08:29;22.92;;;15.18;;
46355;SDS011;32066;49.474;11.106;2024-03-08T02:10:57;24.95;;;15.52;;
46355;SDS011;32066;49.474;11.106;2024-03-08T02:13:27;23.92;;;16.27;;
46355;SDS011;32066;49.474;11.106;2024-03-08T02:15:56;23.40;;;15.48;;
46355;SDS011;32066;49.474;11.106;2024-03-08T02:18:27;25.90;;;16.73;;
46355;SDS011;32066;49.474;11.106;2024-03-08T02:21:02;26.30;;;16.33;;
46355;SDS011;32066;49.474;11.106;2024-03-08T02:23:33;26.85;;;16.50;;
46355;SDS011;32066;49.474;11.106;2024-03-08T02:26:02;24.40;;;16.60;;
46355;SDS011;32066;49.474;11.106;2024-03-08T02:28:32;25.60;;;16.77;;
46355;SDS011;32066;49.474;11.106;2024-03-08T02:31:02;23.98;;;15.88;;
46355;SDS011;32066;49.474;11.106;2024-03-08T02:33:33;23.00;;;15.48;;
46355;SDS011;32066;49.474;11.106;2024-03-08T02:36:05;26.27;;;16.40;;
46355;SDS011;32066;49.474;11.106;2024-03-08T02:38:34;22.50;;;15.30;;
46355;SDS011;32066;49.474;11.106;2024-03-08T02:41:03;27.50;;;17.10;;
46355;SDS011;32066;49.474;11.106;2024-03-08T02:43:32;25.15;;;16.10;;
46355;SDS011;32066;49.474;11.106;2024-03-08T02:46:00;26.48;;;16.95;;
46355;SDS011;32066;49.474;11.106;2024-03-08T02:48:30;24.33;;;16.27;;
46355;SDS011;32066;49.474;11.106;2024-03-08T02:50:59;24.58;;;16.13;;
46355;SDS011;32066;49.474;11.106;2024-03-08T02:53:30;23.55;;;15.52;;
46355;SDS011;32066;49.474;11.106;2024-03-08T02:56:00;24.98;;;16.67;;
46355;SDS011;32066;49.474;11.106;2024-03-08T02:58:30;25.73;;;16.80;;
46355;SDS011;32066;49.474;11.106;2024-03-08T03:00:58;24.95;;;16.30;;
46355;SDS011;32066;49.474;11.106;2024-03-08T03:03:27;26.15;;;16.17;;
46355;SDS011;32066;49.474;11.106;2024-03-08T03:05:56;25.30;;;15.90;;
46355;SDS011;32066;49.474;11.106;2024-03-08T03:08:26;26.92;;;16.90;;
46355;SDS011;32066;49.474;11.106;2024-03-08T03:10:57;26.02;;;16.95;;
46355;SDS011;32066;49.474;11.106;2024-03-08T03:13:26;24.80;;;15.50;;
46355;SDS011;32066;49.474;11.106;2024-03-08T03:15:55;27.13;;;16.60;;
46355;SDS011;32066;49.474;11.106;2024-03-08T03:18:23;25.42;;;16.27;;
46355;SDS011;32066;49.474;11.106;2024-03-08T03:20:52;24.88;;;15.77;;
46355;SDS011;32066;49.474;11.106;2024-03-08T03:23:21;25.27;;;16.05;;
46355;SDS011;32066;49.474;11.106;2024-03-08T03:26:04;22.60;;;15.52;;
46355;SDS011;32066;49.474;11.106;2024-03-08T03:28:48;21.67;;;14.20;;
46355;SDS011;32066;49.474;11.106;2024-03-08T03:31:17;27.95;;;16.67;;
46355;SDS011;32066;49.474;11.106;2024-03-08T03:33:49;26.60;;;16.35;;
46355;SDS011;32066;49.474;11.106;2024-03-08T03:36:18;24.40;;;15.52;;
46355;SDS011;32066;49.474;11.106;2024-03-08T03:38:47;24.15;;;16.33;;
46355;SDS011;32066;49.474;11.106;2024-03-08T03:41:19;26.80;;;17.80;;
46355;SDS011;32066;49.474;11.106;2024-03-08T03:43:48;30.45;;;16.73;;
46355;SDS011;32066;49.474;11.106;2024-03-08T03:46:17;24.92;;;15.90;;
46355;SDS011;32066;49.474;11.106;2024-03-08T03:48:45;24.90;;;16.42;;
46355;SDS011;32066;49.474;11.106;2024-03-08T03:51:14;26.23;;;16.50;;
46355;SDS011;32066;49.474;11.106;2024-03-08T03:53:43;23.40;;;16.35;;
46355;SDS011;32066;49.474;11.106;2024-03-08T03:56:12;27.55;;;17.27;;
46355;SDS011;32066;49.474;11.106;2024-03-08T03:58:43;28.13;;;17.08;;
46355;SDS011;32066;49.474;11.106;2024-03-08T04:01:11;26.90;;;16.70;;
46355;SDS011;32066;49.474;11.106;2024-03-08T04:03:40;27.27;;;16.48;;
46355;SDS011;32066;49.474;11.106;2024-03-08T04:06:10;25.98;;;16.00;;
46355;SDS011;32066;49.474;11.106;2024-03-08T04:08:39;27.45;;;17.67;;
46355;SDS011;32066;49.474;11.106;2024-03-08T04:11:08;27.73;;;17.25;;
46355;SDS011;32066;49.474;11.106;2024-03-08T04:13:37;29.25;;;16.90;;
46355;SDS011;32066;49.474;11.106;2024-03-08T04:16:08;27.83;;;17.85;;
46355;SDS011;32066;49.474;11.106;2024-03-08T04:18:37;25.80;;;16.67;;
46355;SDS011;32066;49.474;11.106;2024-03-08T04:21:05;25.65;;;17.23;;
46355;SDS011;32066;49.474;11.106;2024-03-08T04:23:34;25.80;;;16.52;;
46355;SDS011;32066;49.474;11.106;2024-03-08T04:26:03;28.90;;;17.98;;
46355;SDS011;32066;49.474;11.106;2024-03-08T04:28:34;26.55;;;16.80;;
46355;SDS011;32066;49.474;11.106;2024-03-08T04:31:02;27.63;;;17.35;;
46355;SDS011;32066;49.474;11.106;2024-03-08T04:33:34;27.08;;;17.40;;
46355;SDS011;32066;49.474;11.106;2024-03-08T04:36:04;26.20;;;17.08;;
46355;SDS011;32066;49.474;11.106;2024-03-08T04:38:33;25.75;;;16.48;;
46355;SDS011;32066;49.474;11.106;2024-03-08T04:41:02;29.17;;;17.77;;
46355;SDS011;32066;49.474;11.106;2024-03-08T04:43:31;29.52;;;16.75;;
46355;SDS011;32066;49.474;11.106;2024-03-08T04:45:59;28.02;;;17.85;;
46355;SDS011;32066;49.474;11.106;2024-03-08T04:48:28;26.52;;;17.90;;
46355;SDS011;32066;49.474;11.106;2024-03-08T04:51:00;26.50;;;17.00;;
46355;SDS011;32066;49.474;11.106;2024-03-08T04:53:29;27.48;;;16.88;;
46355;SDS011;32066;49.474;11.106;2024-03-08T04:55:59;27.67;;;16.98;;
46355;SDS011;32066;49.474;11.106;2024-03-08T04:58:31;29.13;;;17.20;;
46355;SDS011;32066;49.474;11.106;2024-03-08T05:01:00;26.63;;;17.25;;
46355;SDS011;32066;49.474;11.106;2024-03-08T05:03:28;25.30;;;17.35;;
46355;SDS011;32066;49.474;11.106;2024-03-08T05:05:59;28.40;;;17.85;;
46355;SDS011;32066;49.474;11.106;2024-03-08T05:08:28;27.83;;;17.55;;
46355;SDS011;32066;49.474;11.106;2024-03-08T05:10:58;26.10;;;17.35;;
46355;SDS011;32066;49.474;11.106;2024-03-08T05:13:28;27.20;;;17.67;;
46355;SDS011;32066;49.474;11.106;2024-03-08T05:15:57;30.52;;;18.27;;
46355;SDS011;32066;49.474;11.106;2024-03-08T05:18:26;27.83;;;18.10;;
46355;SDS011;32066;49.474;11.106;2024-03-08T05:21:00;26.70;;;18.80;;
46355;SDS011;32066;49.474;11.106;2024-03-08T05:23:29;25.33;;;17.67;;
46355;SDS011;32066;49.474;11.106;2024-03-08T05:25:57;29.00;;;18.17;;
46355;SDS011;32066;49.474;11.106;2024-03-08T05:28:26;29.88;;;19.27;;
46355;SDS011;32066;49.474;11.106;2024-03-08T05:30:54;26.77;;;17.67;;
46355;SDS011;32066;49.474;11.106;2024-03-08T05:33:23;26.23;;;18.38;;
46355;SDS011;32066;49.474;11.106;2024-03-08T05:35:52;30.17;;;18.50;;
46355;SDS011;32066;49.474;11.106;2024-03-08T05:38:23;31.60;;;18.88;;
46355;SDS011;32066;49.474;11.106;2024-03-08T05:40:52;27.90;;;18.77;;
46355;SDS011;32066;49.474;11.106;2024-03-08T05:43:20;29.80;;;19.20;;
46355;SDS011;32066;49.474;11.106;2024-03-08T05:45:50;27.63;;;18.48;;
46355;SDS011;32066;49.474;11.106;2024-03-08T05:48:18;30.27;;;18.73;;
46355;SDS011;32066;49.474;11.106;2024-03-08T05:50:47;29.98;;;18.98;;
46355;SDS011;32066;49.474;11.106;2024-03-08T05:53:16;26.92;;;18.27;;
46355;SDS011;32066;49.474;11.106;2024-03-08T05:55:47;28.35;;;18.63;;
46355;SDS011;32066;49.474;11.106;2024-03-08T05:58:16;28.88;;;19.15;;
46355;SDS011;32066;49.474;11.106;2024-03-08T06:00:45;27.73;;;18.60;;
46355;SDS011;32066;49.474;11.106;2024-03-08T06:03:14;29.73;;;19.25;;
46355;SDS011;32066;49.474;11.106;2024-03-08T06:05:45;30.98;;;19.65;;
46355;SDS011;32066;49.474;11.106;2024-03-08T06:08:13;28.67;;;19.17;;
46355;SDS011;32066;49.474;11.106;2024-03-08T06:10:44;30.00;;;20.25;;
46355;SDS011;32066;49.474;11.106;2024-03-08T06:13:17;30.60;;;18.88;;
46355;SDS011;32066;49.474;11.106;2024-03-08T06:15:46;30.98;;;19.95;;
46355;SDS011;32066;49.474;11.106;2024-03-08T06:18:15;33.25;;;20.70;;
46355;SDS011;32066;49.474;11.106;2024-03-08T06:20:45;30.00;;;19.75;;
46355;SDS011;32066;49.474;11.106;2024-03-08T06:23:14;29.20;;;19.17;;
46355;SDS011;32066;49.474;11.106;2024-03-08T06:25:44;32.22;;;19.52;;
46355;SDS011;32066;49.474;11.106;2024-03-08T06:28:15;30.95;;;19.70;;
46355;SDS011;32066;49.474;11.106;2024-03-08T06:30:44;32.47;;;20.52;;
46355;SDS011;32066;49.474;11.106;2024-03-08T06:33:12;30.27;;;19.13;;
46355;SDS011;32066;49.474;11.106;2024-03-08T06:35:41;30.95;;;20.30;;
46355;SDS011;32066;49.474;11.106;2024-03-08T06:38:10;31.80;;;20.73;;
46355;SDS011;32066;49.474;11.106;2024-03-08T06:40:41;31.80;;;20.55;;
46355;SDS011;32066;49.474;11.106;2024-03-08T06:43:15;32.25;;;20.00;;
46355;SDS011;32066;49.474;11.106;2024-03-08T06:45:44;31.80;;;19.92;;
46355;SDS011;32066;49.474;11.106;2024-03-08T06:48:13;28.80;;;19.13;;
46355;SDS011;32066;49.474;11.106;2024-03-08T06:50:42;30.52;;;19.45;;
46355;SDS011;32066;49.474;11.106;2024-03-08T06:53:11;32.60;;;20.55;;
46355;SDS011;32066;49.474;11.106;2024-03-08T06:55:43;31.75;;;20.90;;
46355;SDS011;32066;49.474;11.106;2024-03-08T06:58:14;32.63;;;20.35;;
46355;SDS011;32066;49.474;11.106;2024-03-08T07:00:43;29.05;;;19.83;;
46355;SDS011;32066;49.474;11.106;2024-03-08T07:03:12;32.72;;;21.63;;
46355;SDS011;32066;49.474;11.106;2024-03-08T07:05:42;31.25;;;20.45;;
46355;SDS011;32066;49.474;11.106;2024-03-08T07:08:11;29.92;;;20.10;;
46355;SDS011;32066;49.474;11.106;2024-03-08T07:10:41;32.10;;;19.83;;
46355;SDS011;32066;49.474;11.106;2024-03-08T07:13:11;33.08;;;20.65;;
46355;SDS011;32066;49.474;11.106;2024-03-08T07:15:42;31.20;;;19.27;;
46355;SDS011;32066;49.474;11.106;2024-03-08T07:18:11;29.17;;;19.63;;
46355;SDS011;32066;49.474;11.106;2024-03-08T07:20:41;30.83;;;20.63;;
46355;SDS011;32066;49.474;11.106;2024-03-08T07:23:10;33.08;;;19.65;;
46355;SDS011;32066;49.474;11.106;2024-03-08T07:25:58;29.98;;;19.88;;
46355;SDS011;32066;49.474;11.106;2024-03-08T07:28:27;30.83;;;20.15;;
46355;SDS011;32066;49.474;11.106;2024-03-08T07:30:59;32.85;;;18.83;;
46355;SDS011;32066;49.474;11.106;2024-03-08T07:33:46;32.08;;;19.40;;
46355;SDS011;32066;49.474;11.106;2024-03-08T07:36:15;29.85;;;19.85;;
46355;SDS011;32066;49.474;11.106;2024-03-08T07:38:45;33.17;;;19.63;;
46355;SDS011;32066;49.474;11.106;2024-03-08T07:41:15;30.05;;;19.08;;
46355;SDS011;32066;49.474;11.106;2024-03-08T07:43:44;27.10;;;19.33;;
46355;SDS011;32066;49.474;11.106;2024-03-08T07:46:16;29.15;;;18.10;;
46355;SDS011;32066;49.474;11.106;2024-03-08T07:48:45;29.40;;;18.27;;
46355;SDS011;32066;49.474;11.106;2024-03-08T07:51:15;28.25;;;18.08;;
46355;SDS011;32066;49.474;11.106;2024-03-08T07:53:45;28.88;;;18.98;;
46355;SDS011;32066;49.474;11.106;2024-03-08T07:56:14;29.02;;;19.13;;
46355;SDS011;32066;49.474;11.106;2024-03-08T07:58:43;30.85;;;18.85;;
46355;SDS011;32066;49.474;11.106;2024-03-08T08:01:18;31.13;;;19.10;;
46355;SDS011;32066;49.474;11.106;2024-03-08T08:03:47;29.83;;;19.05;;
46355;SDS011;32066;49.474;11.106;2024-03-08T08:06:16;26.27;;;17.15;;
46355;SDS011;32066;49.474;11.106;2024-03-08T08:08:45;31.08;;;18.73;;
46355;SDS011;32066;49.474;11.106;2024-03-08T08:11:13;26.70;;;17.60;;
46355;SDS011;32066;49.474;11.106;2024-03-08T08:13:43;27.65;;;17.65;;
46355;SDS011;32066;49.474;11.106;2024-03-08T08:16:11;27.75;;;17.65;;
46355;SDS011;32066;49.474;11.106;2024-03-08T08:18:43;25.75;;;16.45;;
46355;SDS011;32066;49.474;11.106;2024-03-08T08:21:13;27.02;;;17.63;;
46355;SDS011;32066;49.474;11.106;2024-03-08T08:23:41;27.13;;;17.13;;
46355;SDS011;32066;49.474;11.106;2024-03-08T08:26:10;26.83;;;18.17;;
46355;SDS011;32066;49.474;11.106;2024-03-08T08:28:39;26.98;;;16.85;;
46355;SDS011;32066;49.474;11.106;2024-03-08T08:31:11;28.23;;;17.27;;
46355;SDS011;32066;49.474;11.106;2024-03-08T08:33:43;27.08;;;17.15;;
46355;SDS011;32066;49.474;11.106;2024-03-08T08:36:13;25.17;;;16.38;;
46355;SDS011;32066;49.474;11.106;2024-03-08T08:38:42;23.35;;;15.75;;
46355;SDS011;32066;49.474;11.106;2024-03-08T08:41:11;25.13;;;16.20;;
46355;SDS011;32066;49.474;11.106;2024-03-08T08:43:39;25.40;;;16.25;;
46355;SDS011;32066;49.474;11.106;2024-03-08T08:46:09;23.20;;;15.85;;
46355;SDS011;32066;49.474;11.106;2024-03-08T08:48:39;25.35;;;15.70;;
46355;SDS011;32066;49.474;11.106;2024-03-08T08:51:12;24.17;;;15.65;;
46355;SDS011;32066;49.474;11.106;2024-03-08T08:53:43;26.83;;;15.60;;
46355;SDS011;32066;49.474;11.106;2024-03-08T08:56:13;24.23;;;15.65;;
46355;SDS011;32066;49.474;11.106;2024-03-08T08:58:42;25.40;;;16.92;;
46355;SDS011;32066;49.474;11.106;2024-03-08T09:01:11;22.38;;;15.18;;
46355;SDS011;32066;49.474;11.106;2024-03-08T09:03:43;22.13;;;14.60;;
46355;SDS011;32066;49.474;11.106;2024-03-08T09:06:15;24.15;;;15.88;;
46355;SDS011;32066;49.474;11.106;2024-03-08T09:08:43;22.67;;;14.40;;
46355;SDS011;32066;49.474;11.106;2024-03-08T09:11:13;21.15;;;14.40;;
46355;SDS011;32066;49.474;11.106;2024-03-08T09:13:43;22.27;;;14.32;;
46355;SDS011;32066;49.474;11.106;2024-03-08T09:16:14;20.48;;;13.65;;
46355;SDS011;32066;49.474;11.106;2024-03-08T09:18:42;20.05;;;13.45;;
46355;SDS011;32066;49.474;11.106;2024-03-08T09:21:11;19.60;;;13.10;;
46355;SDS011;32066;49.474;11.106;2024-03-08T09:23:42;19.55;;;13.13;;
46355;SDS011;32066;49.474;11.106;2024-03-08T09:26:11;19.02;;;13.32;;
46355;SDS011;32066;49.474;11.106;2024-03-08T09:28:40;18.98;;;12.38;;
46355;SDS011;32066;49.474;11.106;2024-03-08T09:31:10;18.83;;;13.32;;
46355;SDS011;32066;49.474;11.106;2024-03-08T09:33:40;19.13;;;12.80;;
46355;SDS011;32066;49.474;11.106;2024-03-08T09:36:10;17.92;;;12.60;;
46355;SDS011;32066;49.474;11.106;2024-03-08T09:38:41;18.63;;;12.32;;
46355;SDS011;32066;49.474;11.106;2024-03-08T09:41:10;17.60;;;12.13;;
46355;SDS011;32066;49.474;11.106;2024-03-08T09:43:39;18.40;;;13.05;;
46355;SDS011;32066;49.474;11.106;2024-03-08T09:46:08;18.92;;;12.40;;
46355;SDS011;32066;49.474;11.106;2024-03-08T09:48:37;18.77;;;12.43;;
46355;SDS011;32066;49.474;11.106;2024-03-08T09:51:06;18.40;;;12.80;;
46355;SDS011;32066;49.474;11.106;2024-03-08T09:53:42;20.90;;;12.02;;
46355;SDS011;32066;49.474;11.106;2024-03-08T09:56:11;18.50;;;11.45;;
46355;SDS011;32066;49.474;11.106;2024-03-08T09:58:40;17.83;;;11.95;;
46355;SDS011;32066;49.474;11.106;2024-03-08T10:01:40;17.20;;;11.40;;
46355;SDS011;32066;49.474;11.106;2024-03-08T10:04:09;16.27;;;11.10;;
46355;SDS011;32066;49.474;11.106;2024-03-08T10:06:39;16.38;;;10.98;;
46355;SDS011;32066;49.474;11.106;2024-03-08T10:09:14;17.33;;;11.00;;
46355;SDS011;32066;49.474;11.106;2024-03-08T10:11:44;16.27;;;11.50;;
46355;SDS011;32066;49.474;11.106;2024-03-08T10:14:13;16.70;;;11.55;;
46355;SDS011;32066;49.474;11.106;2024-03-08T10:16:43;17.40;;;11.27;;
46355;SDS011;32066;49.474;11.106;2024-03-08T10:19:14;16.83;;;11.63;;
46355;SDS011;32066;49.474;11.106;2024-03-08T10:21:48;16.60;;;11.63;;
46355;SDS011;32066;49.474;11.106;2024-03-08T10:24:21;16.95;;;11.23;;
46355;SDS011;32066;49.474;11.106;2024-03-08T10:26:52;14.82;;;10.88;;
46355;SDS011;32066;49.474;11.106;2024-03-08T10:29:21;16.60;;;10.98;;
46355;SDS011;32066;49.474;11.106;2024-03-08T10:31:50;15.90;;;10.38;;
46355;SDS011;32066;49.474;11.106;2024-03-08T10:34:21;15.32;;;10.30;;
46355;SDS011;32066;49.474;11.106;2024-03-08T10:36:50;15.80;;;10.55;;
46355;SDS011;32066;49.474;11.106;2024-03-08T10:39:24;15.40;;;10.85;;
46355;SDS011;32066;49.474;11.106;2024-03-08T10:41:56;15.35;;;10.50;;
46355;SDS011;32066;49.474;11.106;2024-03-08T10:44:32;15.55;;;10.15;;
46355;SDS011;32066;49.474;11.106;2024-03-08T10:47:18;15.20;;;10.07;;
46355;SDS011;32066;49.474;11.106;2024-03-08T10:49:58;15.50;;;9.50;;
46355;SDS011;32066;49.474;11.106;2024-03-08T10:52:34;14.35;;;9.52;;
46355;SDS011;32066;49.474;11.106;2024-03-08T10:55:05;14.95;;;9.82;;
46355;SDS011;32066;49.474;11.106;2024-03-08T10:57:38;15.45;;;9.70;;
46355;SDS011;32066;49.474;11.106;2024-03-08T11:00:07;13.77;;;9.40;;
46355;SDS011;32066;49.474;11.106;2024-03-08T11:02:39;19.17;;;10.23;;
46355;SDS011;32066;49.474;11.106;2024-03-08T11:05:13;17.00;;;10.35;;
46355;SDS011;32066;49.474;11.106;2024-03-08T11:08:00;16.80;;;9.90;;
46355;SDS011;32066;49.474;11.106;2024-03-08T11:10:32;14.63;;;8.82;;
46355;SDS011;32066;49.474;11.106;2024-03-08T11:13:00;16.10;;;9.88;;
46355;SDS011;32066;49.474;11.106;2024-03-08T11:15:29;16.33;;;10.15;;
46355;SDS011;32066;49.474;11.106;2024-03-08T11:17:58;17.33;;;10.23;;
46355;SDS011;32066;49.474;11.106;2024-03-08T11:20:28;16.17;;;9.82;;
46355;SDS011;32066;49.474;11.106;2024-03-08T11:23:01;17.75;;;10.27;;
46355;SDS011;32066;49.474;11.106;2024-03-08T11:25:35;16.77;;;9.80;;
46355;SDS011;32066;49.474;11.106;2024-03-08T11:28:08;15.13;;;8.52;;
46355;SDS011;32066;49.474;11.106;2024-03-08T11:30:41;16.02;;;9.45;;
46355;SDS011;32066;49.474;11.106;2024-03-08T11:33:12;17.05;;;9.40;;
46355;SDS011;32066;49.474;11.106;2024-03-08T11:35:41;16.67;;;10.55;;
46355;SDS011;32066;49.474;11.106;2024-03-08T11:38:11;16.85;;;10.48;;
46355;SDS011;32066;49.474;11.106;2024-03-08T11:40:45;18.70;;;10.02;;
46355;SDS011;32066;49.474;11.106;2024-03-08T11:43:15;14.77;;;8.27;;
46355;SDS011;32066;49.474;11.106;2024-03-08T11:45:45;13.45;;;7.75;;
46355;SDS011;32066;49.474;11.106;2024-03-08T11:48:13;16.15;;;8.25;;
46355;SDS011;32066;49.474;11.106;2024-03-08T11:50:42;17.80;;;8.50;;
46355;SDS011;32066;49.474;11.106;2024-03-08T11:53:14;15.20;;;8.27;;
46355;SDS011;32066;49.474;11.106;2024-03-08T11:55:45;13.98;;;8.32;;
46355;SDS011;32066;49.474;11.106;2024-03-08T11:58:14;13.75;;;8.38;;
46355;SDS011;32066;49.474;11.106;2024-03-08T12:00:43;15.00;;;8.70;;
46355;SDS011;32066;49.474;11.106;2024-03-08T12:03:11;16.08;;;8.55;;
46355;SDS011;32066;49.474;11.106;2024-03-08T12:05:41;11.65;;;7.60;;
46355;SDS011;32066;49.474;11.106;2024-03-08T12:08:11;12.85;;;8.27;;
46355;SDS011;32066;49.474;11.106;2024-03-08T12:10:40;12.18;;;8.02;;
46355;SDS011;32066;49.474;11.106;2024-03-08T12:13:12;12.32;;;7.88;;
46355;SDS011;32066;49.474;11.106;2024-03-08T12:15:41;13.27;;;8.18;;
46355;SDS011;32066;49.474;11.106;2024-03-08T12:18:11;11.23;;;7.30;;
46355;SDS011;32066;49.474;11.106;2024-03-08T12:20:40;11.77;;;8.05;;
46355;SDS011;32066;49.474;11.106;2024-03-08T12:23:15;13.57;;;8.68;;
46355;SDS011;32066;49.474;11.106;2024-03-08T12:25:44;12.98;;;8.23;;
46355;SDS011;32066;49.474;11.106;2024-03-08T12:28:15;12.52;;;8.45;;
46355;SDS011;32066;49.474;11.106;2024-03-08T12:30:48;13.38;;;8.70;;
46355;SDS011;32066;49.474;11.106;2024-03-08T12:33:18;13.60;;;9.45;;
46355;SDS011;32066;49.474;11.106;2024-03-08T12:35:50;12.68;;;8.65;;
46355;SDS011;32066;49.474;11.106;2024-03-08T12:38:23;16.80;;;10.05;;
46355;SDS011;32066;49.474;11.106;2024-03-08T12:40:57;16.50;;;10.77;;
46355;SDS011;32066;49.474;11.106;2024-03-08T12:43:29;13.45;;;9.48;;
46355;SDS011;32066;49.474;11.106;2024-03-08T12:45:59;17.13;;;11.40;;
46355;SDS011;32066;49.474;11.106;2024-03-08T12:48:33;15.32;;;10.45;;
46355;SDS011;32066;49.474;11.106;2024-03-08T12:51:05;15.25;;;10.82;;
46355;SDS011;32066;49.474;11.106;2024-03-08T12:53:34;14.90;;;10.38;;
46355;SDS011;32066;49.474;11.106;2024-03-08T12:56:05;15.45;;;10.00;;
46355;SDS011;32066;49.474;11.106;2024-03-08T12:58:38;16.55;;;10.73;;
46355;SDS011;32066;49.474;11.106;2024-03-08T13:01:08;17.23;;;11.25;;
46355;SDS011;32066;49.474;11.106;2024-03-08T13:03:37;14.05;;;9.88;;
46355;SDS011;32066;49.474;11.106;2024-03-08T13:06:06;16.75;;;11.30;;
46355;SDS011;32066;49.474;11.106;2024-03-08T13:08:34;17.02;;;11.15;;
46355;SDS011;32066;49.474;11.106;2024-03-08T13:11:04;15.60;;;10.40;;
46355;SDS011;32066;49.474;11.106;2024-03-08T13:13:32;16.33;;;11.20;;
46355;SDS011;32066;49.474;11.106;2024-03-08T13:16:05;16.40;;;11.13;;
46355;SDS011;32066;49.474;11.106;2024-03-08T13:18:34;15.55;;;10.75;;
46355;SDS011;32066;49.474;11.106;2024-03-08T13:21:03;15.73;;;10.55;;
46355;SDS011;32066;49.474;11.106;2024-03-08T13:23:33;16.77;;;10.93;;
46355;SDS011;32066;49.474;11.106;2024-03-08T13:26:04;17.55;;;10.88;;
46355;SDS011;32066;49.474;11.106;2024-03-08T13:28:33;16.83;;;10.52;;
46355;SDS011;32066;49.474;11.106;2024-03-08T13:31:07;15.75;;;11.23;;
46355;SDS011;32066;49.474;11.106;2024-03-08T13:33:35;15.45;;;10.98;;
46355;SDS011;32066;49.474;11.106;2024-03-08T13:36:05;15.70;;;10.38;;
46355;SDS011;32066;49.474;11.106;2024-03-08T13:38:40;16.67;;;10.50;;
46355;SDS011;32066;49.474;11.106;2024-03-08T13:41:10;15.27;;;10.60;;
46355;SDS011;32066;49.474;11.106;2024-03-08T13:43:40;17.20;;;11.55;;
46355;SDS011;32066;49.474;11.106;2024-03-08T13:46:11;16.45;;;10.85;;
46355;SDS011;32066;49.474;11.106;2024-03-08T13:48:40;15.32;;;10.10;;
46355;SDS011;32066;49.474;11.106;2024-03-08T13:51:08;17.63;;;10.98;;
46355;SDS011;32066;49.474;11.106;2024-03-08T13:53:40;15.75;;;10.90;;
46355;SDS011;32066;49.474;11.106;2024-03-08T13:56:09;16.83;;;10.85;;
46355;SDS011;32066;49.474;11.106;2024-03-08T13:58:40;14.30;;;9.43;;
46355;SDS011;32066;49.474;11.106;2024-03-08T14:01:11;17.83;;;10.07;;
46355;SDS011;32066;49.474;11.106;2024-03-08T14:06:59;16.55;;;10.82;;
46355;SDS011;32066;49.474;11.106;2024-03-08T14:09:29;18.23;;;10.77;;
46355;SDS011;32066;49.474;11.106;2024-03-08T14:12:02;16.08;;;10.32;;
46355;SDS011;32066;49.474;11.106;2024-03-08T14:14:32;16.38;;;10.40;;
46355;SDS011;32066;49.474;11.106;2024-03-08T14:17:04;14.25;;;9.80;;
46355;SDS011;32066;49.474;11.106;2024-03-08T14:19:35;18.60;;;11.10;;
46355;SDS011;32066;49.474;11.106;2024-03-08T14:22:04;15.52;;;10.38;;
46355;SDS011;32066;49.474;11.106;2024-03-08T14:24:35;14.23;;;9.82;;
46355;SDS011;32066;49.474;11.106;2024-03-08T14:27:04;15.27;;;10.52;;
46355;SDS011;32066;49.474;11.106;2024-03-08T14:29:34;15.70;;;10.40;;
46355;SDS011;32066;49.474;11.106;2024-03-08T14:32:06;19.90;;;10.20;;